sensor_id;sensor_type;location;lat;lon;timestamp;temperature;humidity
22742;DHT22;11538;48.884;8.696;2023-08-12T00:00:57;21.30;99.90
22742;DHT22;11538;48.884;8.696;2023-08-12T00:03:24;21.30;99.90
22742;DHT22;11538;48.884;8.696;2023-08-12T00:05:52;21.30;99.90
22742;DHT22;11538;48.884;8.696;2023-08-12T00:08:19;21.30;99.90
22742;DHT22;11538;48.884;8.696;2023-08-12T00:10:46;21.30;99.90
22742;DHT22;11538;48.884;8.696;2023-08-12T00:13:13;21.30;99.90
22742;DHT22;11538;48.884;8.696;2023-08-12T00:15:44;21.30;99.90
22742;DHT22;11538;48.884;8.696;2023-08-12T00:18:14;21.30;99.90
22742;DHT22;11538;48.884;8.696;2023-08-12T00:20:42;21.30;99.90
22742;DHT22;11538;48.884;8.696;2023-08-12T00:23:09;21.40;99.90
22742;DHT22;11538;48.884;8.696;2023-08-12T00:25:36;21.40;99.90
22742;DHT22;11538;48.884;8.696;2023-08-12T00:28:03;21.40;99.90
22742;DHT22;11538;48.884;8.696;2023-08-12T00:30:30;21.40;99.90
22742;DHT22;11538;48.884;8.696;2023-08-12T00:32:57;21.40;99.90
22742;DHT22;11538;48.884;8.696;2023-08-12T00:35:24;21.40;99.90
22742;DHT22;11538;48.884;8.696;2023-08-12T00:37:53;21.50;99.90
22742;DHT22;11538;48.884;8.696;2023-08-12T00:40:21;21.50;99.90
22742;DHT22;11538;48.884;8.696;2023-08-12T00:42:48;21.50;99.90
22742;DHT22;11538;48.884;8.696;2023-08-12T00:45:15;21.50;99.90
22742;DHT22;11538;48.884;8.696;2023-08-12T00:47:42;21.50;99.90
22742;DHT22;11538;48.884;8.696;2023-08-12T00:50:12;21.60;99.90
22742;DHT22;11538;48.884;8.696;2023-08-12T00:52:41;21.60;99.90
22742;DHT22;11538;48.884;8.696;2023-08-12T00:55:08;21.60;99.90
22742;DHT22;11538;48.884;8.696;2023-08-12T00:57:36;21.50;99.90
22742;DHT22;11538;48.884;8.696;2023-08-12T01:00:04;21.50;99.90
22742;DHT22;11538;48.884;8.696;2023-08-12T01:02:31;21.50;99.90
22742;DHT22;11538;48.884;8.696;2023-08-12T01:04:58;21.40;99.90
22742;DHT22;11538;48.884;8.696;2023-08-12T01:07:26;21.40;99.90
22742;DHT22;11538;48.884;8.696;2023-08-12T01:09:54;21.40;99.90
22742;DHT22;11538;48.884;8.696;2023-08-12T01:12:26;21.30;99.90
22742;DHT22;11538;48.884;8.696;2023-08-12T01:17:38;21.40;99.90
22742;DHT22;11538;48.884;8.696;2023-08-12T01:20:11;21.40;99.90
22742;DHT22;11538;48.884;8.696;2023-08-12T01:22:44;21.30;99.90
22742;DHT22;11538;48.884;8.696;2023-08-12T01:25:11;21.30;99.90
22742;DHT22;11538;48.884;8.696;2023-08-12T01:27:38;21.20;99.90
22742;DHT22;11538;48.884;8.696;2023-08-12T01:30:06;21.20;99.90
22742;DHT22;11538;48.884;8.696;2023-08-12T01:32:43;21.20;99.90
22742;DHT22;11538;48.884;8.696;2023-08-12T01:35:23;21.20;99.90
22742;DHT22;11538;48.884;8.696;2023-08-12T01:37:53;21.20;99.90
22742;DHT22;11538;48.884;8.696;2023-08-12T01:40:24;21.10;99.90
22742;DHT22;11538;48.884;8.696;2023-08-12T01:42:52;21.20;99.90
22742;DHT22;11538;48.884;8.696;2023-08-12T01:45:19;21.20;99.90
22742;DHT22;11538;48.884;8.696;2023-08-12T01:47:46;21.20;99.90
22742;DHT22;11538;48.884;8.696;2023-08-12T01:50:17;21.30;99.90
22742;DHT22;11538;48.884;8.696;2023-08-12T01:52:45;21.20;99.90
22742;DHT22;11538;48.884;8.696;2023-08-12T01:55:12;21.30;99.90
22742;DHT22;11538;48.884;8.696;2023-08-12T01:57:39;21.30;99.90
22742;DHT22;11538;48.884;8.696;2023-08-12T02:00:07;21.30;99.90
22742;DHT22;11538;48.884;8.696;2023-08-12T02:02:35;21.40;99.90
22742;DHT22;11538;48.884;8.696;2023-08-12T02:05:02;21.40;99.90
22742;DHT22;11538;48.884;8.696;2023-08-12T02:07:29;21.40;99.90
22742;DHT22;11538;48.884;8.696;2023-08-12T02:09:56;21.40;99.90
22742;DHT22;11538;48.884;8.696;2023-08-12T02:12:23;21.30;99.90
22742;DHT22;11538;48.884;8.696;2023-08-12T02:14:50;21.20;99.90
22742;DHT22;11538;48.884;8.696;2023-08-12T02:17:17;21.10;99.90
22742;DHT22;11538;48.884;8.696;2023-08-12T02:19:44;21.00;99.90
22742;DHT22;11538;48.884;8.696;2023-08-12T02:22:14;20.90;99.90
22742;DHT22;11538;48.884;8.696;2023-08-12T02:24:41;20.80;99.90
22742;DHT22;11538;48.884;8.696;2023-08-12T02:27:08;20.80;99.90
22742;DHT22;11538;48.884;8.696;2023-08-12T02:29:36;20.70;99.90
22742;DHT22;11538;48.884;8.696;2023-08-12T02:32:03;20.80;99.90
22742;DHT22;11538;48.884;8.696;2023-08-12T02:34:30;20.80;99.90
22742;DHT22;11538;48.884;8.696;2023-08-12T02:36:57;20.80;99.90
22742;DHT22;11538;48.884;8.696;2023-08-12T02:39:24;20.90;99.90
22742;DHT22;11538;48.884;8.696;2023-08-12T02:41:51;20.90;99.90
22742;DHT22;11538;48.884;8.696;2023-08-12T02:44:18;20.90;99.90
22742;DHT22;11538;48.884;8.696;2023-08-12T02:46:45;20.90;99.90
22742;DHT22;11538;48.884;8.696;2023-08-12T02:49:12;20.90;99.90
22742;DHT22;11538;48.884;8.696;2023-08-12T02:51:39;20.90;99.90
22742;DHT22;11538;48.884;8.696;2023-08-12T02:54:06;20.90;99.90
22742;DHT22;11538;48.884;8.696;2023-08-12T02:56:33;20.90;99.90
22742;DHT22;11538;48.884;8.696;2023-08-12T02:59:00;20.90;99.90
22742;DHT22;11538;48.884;8.696;2023-08-12T03:01:27;20.80;99.90
22742;DHT22;11538;48.884;8.696;2023-08-12T03:03:54;20.80;99.90
22742;DHT22;11538;48.884;8.696;2023-08-12T03:06:22;20.80;99.90
22742;DHT22;11538;48.884;8.696;2023-08-12T03:08:48;20.80;99.90
22742;DHT22;11538;48.884;8.696;2023-08-12T03:11:15;20.90;99.90
22742;DHT22;11538;48.884;8.696;2023-08-12T03:13:43;20.90;99.90
22742;DHT22;11538;48.884;8.696;2023-08-12T03:16:14;20.90;99.90
22742;DHT22;11538;48.884;8.696;2023-08-12T03:18:41;20.90;99.90
22742;DHT22;11538;48.884;8.696;2023-08-12T03:21:09;20.90;99.90
22742;DHT22;11538;48.884;8.696;2023-08-12T03:23:37;20.90;99.90
22742;DHT22;11538;48.884;8.696;2023-08-12T03:26:05;20.90;99.90
22742;DHT22;11538;48.884;8.696;2023-08-12T03:28:32;20.90;99.90
22742;DHT22;11538;48.884;8.696;2023-08-12T03:30:59;21.00;99.90
22742;DHT22;11538;48.884;8.696;2023-08-12T03:33:26;21.00;99.90
22742;DHT22;11538;48.884;8.696;2023-08-12T03:35:53;21.00;99.90
22742;DHT22;11538;48.884;8.696;2023-08-12T03:38:20;20.90;99.90
22742;DHT22;11538;48.884;8.696;2023-08-12T03:40:47;20.90;99.90
22742;DHT22;11538;48.884;8.696;2023-08-12T03:43:14;20.90;99.90
22742;DHT22;11538;48.884;8.696;2023-08-12T03:45:44;20.90;99.90
22742;DHT22;11538;48.884;8.696;2023-08-12T03:48:12;20.90;99.90
22742;DHT22;11538;48.884;8.696;2023-08-12T03:50:40;20.90;99.90
22742;DHT22;11538;48.884;8.696;2023-08-12T03:53:08;20.90;99.90
22742;DHT22;11538;48.884;8.696;2023-08-12T03:55:35;20.80;99.90
22742;DHT22;11538;48.884;8.696;2023-08-12T03:58:03;20.80;99.90
22742;DHT22;11538;48.884;8.696;2023-08-12T04:00:30;20.80;99.90
22742;DHT22;11538;48.884;8.696;2023-08-12T04:02:57;20.80;99.90
22742;DHT22;11538;48.884;8.696;2023-08-12T04:05:24;20.80;99.90
22742;DHT22;11538;48.884;8.696;2023-08-12T04:07:52;20.80;99.90
22742;DHT22;11538;48.884;8.696;2023-08-12T04:10:19;20.80;99.90
22742;DHT22;11538;48.884;8.696;2023-08-12T04:12:46;20.80;99.90
22742;DHT22;11538;48.884;8.696;2023-08-12T04:15:13;20.80;99.90
22742;DHT22;11538;48.884;8.696;2023-08-12T04:17:40;20.80;99.90
22742;DHT22;11538;48.884;8.696;2023-08-12T04:20:08;20.80;99.90
22742;DHT22;11538;48.884;8.696;2023-08-12T04:22:35;20.80;99.90
22742;DHT22;11538;48.884;8.696;2023-08-12T04:25:03;20.80;99.90
22742;DHT22;11538;48.884;8.696;2023-08-12T04:27:30;20.80;99.90
22742;DHT22;11538;48.884;8.696;2023-08-12T04:29:57;20.80;99.90
22742;DHT22;11538;48.884;8.696;2023-08-12T04:32:24;20.80;99.90
22742;DHT22;11538;48.884;8.696;2023-08-12T04:34:51;20.80;99.90
22742;DHT22;11538;48.884;8.696;2023-08-12T04:37:18;20.80;99.90
22742;DHT22;11538;48.884;8.696;2023-08-12T04:39:45;20.80;99.90
22742;DHT22;11538;48.884;8.696;2023-08-12T04:42:12;20.80;99.90
22742;DHT22;11538;48.884;8.696;2023-08-12T04:44:39;20.80;99.90
22742;DHT22;11538;48.884;8.696;2023-08-12T04:47:06;20.70;99.90
22742;DHT22;11538;48.884;8.696;2023-08-12T04:49:33;20.70;99.90
22742;DHT22;11538;48.884;8.696;2023-08-12T04:52:00;20.80;99.90
22742;DHT22;11538;48.884;8.696;2023-08-12T04:54:27;20.70;99.90
22742;DHT22;11538;48.884;8.696;2023-08-12T04:56:53;20.70;99.90
22742;DHT22;11538;48.884;8.696;2023-08-12T04:59:20;20.70;99.90
22742;DHT22;11538;48.884;8.696;2023-08-12T05:01:48;20.70;99.90
22742;DHT22;11538;48.884;8.696;2023-08-12T05:04:30;20.80;99.90
22742;DHT22;11538;48.884;8.696;2023-08-12T05:06:56;20.80;99.90
22742;DHT22;11538;48.884;8.696;2023-08-12T05:09:23;20.80;99.90
22742;DHT22;11538;48.884;8.696;2023-08-12T05:11:50;20.80;99.90
22742;DHT22;11538;48.884;8.696;2023-08-12T05:14:17;20.80;99.90
22742;DHT22;11538;48.884;8.696;2023-08-12T05:16:44;20.80;99.90
22742;DHT22;11538;48.884;8.696;2023-08-12T05:19:11;20.80;99.90
22742;DHT22;11538;48.884;8.696;2023-08-12T05:21:38;20.80;99.90
22742;DHT22;11538;48.884;8.696;2023-08-12T05:24:05;20.80;99.90
22742;DHT22;11538;48.884;8.696;2023-08-12T05:26:33;20.80;99.90
22742;DHT22;11538;48.884;8.696;2023-08-12T05:29:00;20.80;99.90
22742;DHT22;11538;48.884;8.696;2023-08-12T05:31:27;20.70;99.90
22742;DHT22;11538;48.884;8.696;2023-08-12T05:33:54;20.60;99.90
22742;DHT22;11538;48.884;8.696;2023-08-12T05:36:21;20.60;99.90
22742;DHT22;11538;48.884;8.696;2023-08-12T05:38:48;20.60;99.90
22742;DHT22;11538;48.884;8.696;2023-08-12T05:41:15;20.60;99.90
22742;DHT22;11538;48.884;8.696;2023-08-12T05:43:42;20.60;99.90
22742;DHT22;11538;48.884;8.696;2023-08-12T05:46:10;20.60;99.90
22742;DHT22;11538;48.884;8.696;2023-08-12T05:48:37;20.60;99.90
22742;DHT22;11538;48.884;8.696;2023-08-12T05:51:04;20.70;99.90
22742;DHT22;11538;48.884;8.696;2023-08-12T05:53:32;20.70;99.90
22742;DHT22;11538;48.884;8.696;2023-08-12T05:56:00;20.80;99.90
22742;DHT22;11538;48.884;8.696;2023-08-12T05:58:27;20.80;99.90
22742;DHT22;11538;48.884;8.696;2023-08-12T06:00:54;20.80;99.90
22742;DHT22;11538;48.884;8.696;2023-08-12T06:03:21;20.90;99.90
22742;DHT22;11538;48.884;8.696;2023-08-12T06:05:48;20.90;99.90
22742;DHT22;11538;48.884;8.696;2023-08-12T06:08:16;21.00;99.90
22742;DHT22;11538;48.884;8.696;2023-08-12T06:10:43;21.00;99.90
22742;DHT22;11538;48.884;8.696;2023-08-12T06:13:10;21.10;99.90
22742;DHT22;11538;48.884;8.696;2023-08-12T06:15:37;21.20;99.90
22742;DHT22;11538;48.884;8.696;2023-08-12T06:18:04;21.30;99.90
22742;DHT22;11538;48.884;8.696;2023-08-12T06:20:32;21.40;99.90
22742;DHT22;11538;48.884;8.696;2023-08-12T06:22:58;21.40;99.90
22742;DHT22;11538;48.884;8.696;2023-08-12T06:25:25;21.50;99.90
22742;DHT22;11538;48.884;8.696;2023-08-12T06:27:52;21.50;99.90
22742;DHT22;11538;48.884;8.696;2023-08-12T06:30:20;21.50;99.90
22742;DHT22;11538;48.884;8.696;2023-08-12T06:32:47;21.50;99.90
22742;DHT22;11538;48.884;8.696;2023-08-12T06:35:14;21.60;99.90
22742;DHT22;11538;48.884;8.696;2023-08-12T06:37:41;21.60;99.90
22742;DHT22;11538;48.884;8.696;2023-08-12T06:40:08;21.60;99.90
22742;DHT22;11538;48.884;8.696;2023-08-12T06:42:35;21.60;99.90
22742;DHT22;11538;48.884;8.696;2023-08-12T06:45:02;21.60;99.90
22742;DHT22;11538;48.884;8.696;2023-08-12T06:47:31;21.70;99.90
22742;DHT22;11538;48.884;8.696;2023-08-12T06:49:58;21.70;99.90
22742;DHT22;11538;48.884;8.696;2023-08-12T06:52:25;21.70;99.90
22742;DHT22;11538;48.884;8.696;2023-08-12T06:54:52;21.70;99.90
22742;DHT22;11538;48.884;8.696;2023-08-12T06:57:19;21.70;99.90
22742;DHT22;11538;48.884;8.696;2023-08-12T06:59:46;21.70;99.90
22742;DHT22;11538;48.884;8.696;2023-08-12T07:02:13;21.80;99.90
22742;DHT22;11538;48.884;8.696;2023-08-12T07:04:40;21.80;99.90
22742;DHT22;11538;48.884;8.696;2023-08-12T07:07:07;21.90;99.90
22742;DHT22;11538;48.884;8.696;2023-08-12T07:09:34;22.00;99.90
22742;DHT22;11538;48.884;8.696;2023-08-12T07:12:01;22.10;99.90
22742;DHT22;11538;48.884;8.696;2023-08-12T07:14:31;22.10;99.90
22742;DHT22;11538;48.884;8.696;2023-08-12T07:16:58;22.20;99.90
22742;DHT22;11538;48.884;8.696;2023-08-12T07:19:24;22.30;99.90
22742;DHT22;11538;48.884;8.696;2023-08-12T07:21:51;22.30;99.90
22742;DHT22;11538;48.884;8.696;2023-08-12T07:24:19;22.40;99.90
22742;DHT22;11538;48.884;8.696;2023-08-12T07:26:46;22.50;99.90
22742;DHT22;11538;48.884;8.696;2023-08-12T07:29:13;22.60;99.90
22742;DHT22;11538;48.884;8.696;2023-08-12T07:31:40;22.60;99.90
22742;DHT22;11538;48.884;8.696;2023-08-12T07:34:07;22.80;99.90
22742;DHT22;11538;48.884;8.696;2023-08-12T07:36:34;22.90;99.90
22742;DHT22;11538;48.884;8.696;2023-08-12T07:39:02;23.00;99.90
22742;DHT22;11538;48.884;8.696;2023-08-12T07:41:29;23.20;99.90
22742;DHT22;11538;48.884;8.696;2023-08-12T07:43:56;23.40;99.90
22742;DHT22;11538;48.884;8.696;2023-08-12T07:46:23;23.50;99.90
22742;DHT22;11538;48.884;8.696;2023-08-12T07:48:50;23.70;99.90
22742;DHT22;11538;48.884;8.696;2023-08-12T07:51:17;23.90;99.90
22742;DHT22;11538;48.884;8.696;2023-08-12T07:53:44;24.10;99.90
22742;DHT22;11538;48.884;8.696;2023-08-12T07:56:11;24.20;99.90
22742;DHT22;11538;48.884;8.696;2023-08-12T07:58:38;24.40;99.90
22742;DHT22;11538;48.884;8.696;2023-08-12T08:01:05;24.60;99.90
22742;DHT22;11538;48.884;8.696;2023-08-12T08:03:31;24.70;99.90
22742;DHT22;11538;48.884;8.696;2023-08-12T08:05:58;24.80;99.90
22742;DHT22;11538;48.884;8.696;2023-08-12T08:08:25;24.90;99.90
22742;DHT22;11538;48.884;8.696;2023-08-12T08:10:52;25.00;99.90
22742;DHT22;11538;48.884;8.696;2023-08-12T08:13:19;25.10;99.90
22742;DHT22;11538;48.884;8.696;2023-08-12T08:15:46;25.20;99.90
22742;DHT22;11538;48.884;8.696;2023-08-12T08:18:13;25.40;99.90
22742;DHT22;11538;48.884;8.696;2023-08-12T08:20:42;25.50;99.90
22742;DHT22;11538;48.884;8.696;2023-08-12T08:23:11;25.70;99.90
22742;DHT22;11538;48.884;8.696;2023-08-12T08:25:38;25.90;99.90
22742;DHT22;11538;48.884;8.696;2023-08-12T08:28:05;26.00;99.90
22742;DHT22;11538;48.884;8.696;2023-08-12T08:30:32;26.20;99.90
22742;DHT22;11538;48.884;8.696;2023-08-12T08:32:59;26.40;99.90
22742;DHT22;11538;48.884;8.696;2023-08-12T08:35:27;26.60;99.90
22742;DHT22;11538;48.884;8.696;2023-08-12T08:37:54;26.80;99.90
22742;DHT22;11538;48.884;8.696;2023-08-12T08:40:21;26.90;99.90
22742;DHT22;11538;48.884;8.696;2023-08-12T08:42:52;27.10;99.90
22742;DHT22;11538;48.884;8.696;2023-08-12T08:45:22;27.30;99.90
22742;DHT22;11538;48.884;8.696;2023-08-12T08:47:51;27.50;99.90
22742;DHT22;11538;48.884;8.696;2023-08-12T08:50:19;27.70;99.90
22742;DHT22;11538;48.884;8.696;2023-08-12T08:52:48;28.00;99.90
22742;DHT22;11538;48.884;8.696;2023-08-12T08:55:16;28.10;99.90
22742;DHT22;11538;48.884;8.696;2023-08-12T08:57:47;28.10;99.90
22742;DHT22;11538;48.884;8.696;2023-08-12T09:00:18;28.20;99.90
22742;DHT22;11538;48.884;8.696;2023-08-12T09:02:47;28.20;99.90
22742;DHT22;11538;48.884;8.696;2023-08-12T09:05:15;28.20;99.90
22742;DHT22;11538;48.884;8.696;2023-08-12T09:07:43;28.20;99.90
22742;DHT22;11538;48.884;8.696;2023-08-12T09:10:11;28.30;99.90
22742;DHT22;11538;48.884;8.696;2023-08-12T09:12:42;28.40;99.90
22742;DHT22;11538;48.884;8.696;2023-08-12T09:15:10;28.50;99.90
22742;DHT22;11538;48.884;8.696;2023-08-12T09:17:37;28.70;99.90
22742;DHT22;11538;48.884;8.696;2023-08-12T09:20:05;28.90;99.90
22742;DHT22;11538;48.884;8.696;2023-08-12T09:22:42;29.00;99.90
22742;DHT22;11538;48.884;8.696;2023-08-12T09:25:10;29.10;99.90
22742;DHT22;11538;48.884;8.696;2023-08-12T09:27:37;29.20;99.90
22742;DHT22;11538;48.884;8.696;2023-08-12T09:30:08;29.20;99.90
22742;DHT22;11538;48.884;8.696;2023-08-12T09:32:38;29.20;99.90
22742;DHT22;11538;48.884;8.696;2023-08-12T09:35:05;29.20;99.90
22742;DHT22;11538;48.884;8.696;2023-08-12T09:37:42;29.20;99.90
22742;DHT22;11538;48.884;8.696;2023-08-12T09:40:10;29.20;99.90
22742;DHT22;11538;48.884;8.696;2023-08-12T09:42:45;29.20;99.90
22742;DHT22;11538;48.884;8.696;2023-08-12T09:45:13;29.10;99.90
22742;DHT22;11538;48.884;8.696;2023-08-12T09:47:42;29.20;99.90
22742;DHT22;11538;48.884;8.696;2023-08-12T09:50:12;29.20;99.90
22742;DHT22;11538;48.884;8.696;2023-08-12T09:52:40;29.30;99.90
22742;DHT22;11538;48.884;8.696;2023-08-12T09:55:08;29.40;99.90
22742;DHT22;11538;48.884;8.696;2023-08-12T09:57:42;29.50;99.90
22742;DHT22;11538;48.884;8.696;2023-08-12T10:00:12;29.70;99.90
22742;DHT22;11538;48.884;8.696;2023-08-12T10:02:44;29.90;99.90
22742;DHT22;11538;48.884;8.696;2023-08-12T10:05:27;30.00;99.90
22742;DHT22;11538;48.884;8.696;2023-08-12T10:07:58;30.30;99.90
22742;DHT22;11538;48.884;8.696;2023-08-12T10:10:26;30.50;99.90
22742;DHT22;11538;48.884;8.696;2023-08-12T10:12:54;30.70;99.90
22742;DHT22;11538;48.884;8.696;2023-08-12T10:15:21;30.90;99.90
22742;DHT22;11538;48.884;8.696;2023-08-12T10:17:51;31.10;99.90
22742;DHT22;11538;48.884;8.696;2023-08-12T10:20:23;31.40;99.90
22742;DHT22;11538;48.884;8.696;2023-08-12T10:22:52;31.60;99.90
22742;DHT22;11538;48.884;8.696;2023-08-12T10:25:20;31.80;99.90
22742;DHT22;11538;48.884;8.696;2023-08-12T10:27:51;32.00;99.90
22742;DHT22;11538;48.884;8.696;2023-08-12T10:30:20;32.20;99.90
22742;DHT22;11538;48.884;8.696;2023-08-12T10:32:47;32.30;99.90
22742;DHT22;11538;48.884;8.696;2023-08-12T10:35:14;32.50;99.90
22742;DHT22;11538;48.884;8.696;2023-08-12T10:37:42;32.80;99.90
22742;DHT22;11538;48.884;8.696;2023-08-12T10:40:22;33.00;99.90
22742;DHT22;11538;48.884;8.696;2023-08-12T10:42:50;33.20;99.90
22742;DHT22;11538;48.884;8.696;2023-08-12T10:45:17;33.40;99.90
22742;DHT22;11538;48.884;8.696;2023-08-12T10:48:08;33.50;99.90
22742;DHT22;11538;48.884;8.696;2023-08-12T10:50:35;33.70;99.90
22742;DHT22;11538;48.884;8.696;2023-08-12T10:53:32;33.80;99.90
22742;DHT22;11538;48.884;8.696;2023-08-12T10:56:04;33.70;99.90
22742;DHT22;11538;48.884;8.696;2023-08-12T10:58:41;33.40;99.90
22742;DHT22;11538;48.884;8.696;2023-08-12T11:01:18;33.30;99.90
22742;DHT22;11538;48.884;8.696;2023-08-12T11:03:48;33.10;99.90
22742;DHT22;11538;48.884;8.696;2023-08-12T11:06:16;32.90;99.90
22742;DHT22;11538;48.884;8.696;2023-08-12T11:09:01;32.70;99.90
22742;DHT22;11538;48.884;8.696;2023-08-12T11:11:33;32.40;99.90
22742;DHT22;11538;48.884;8.696;2023-08-12T11:14:11;32.10;99.90
22742;DHT22;11538;48.884;8.696;2023-08-12T11:16:42;31.80;99.90
22742;DHT22;11538;48.884;8.696;2023-08-12T11:19:10;31.60;99.90
22742;DHT22;11538;48.884;8.696;2023-08-12T11:21:37;31.30;99.90
22742;DHT22;11538;48.884;8.696;2023-08-12T11:24:05;31.20;99.90
22742;DHT22;11538;48.884;8.696;2023-08-12T11:26:32;31.00;99.90
22742;DHT22;11538;48.884;8.696;2023-08-12T11:28:59;31.00;99.90
22742;DHT22;11538;48.884;8.696;2023-08-12T11:31:26;31.10;99.90
22742;DHT22;11538;48.884;8.696;2023-08-12T11:33:54;31.40;99.90
22742;DHT22;11538;48.884;8.696;2023-08-12T11:36:21;31.70;99.90
22742;DHT22;11538;48.884;8.696;2023-08-12T11:38:48;32.00;99.90
22742;DHT22;11538;48.884;8.696;2023-08-12T11:41:17;32.30;99.90
22742;DHT22;11538;48.884;8.696;2023-08-12T11:43:45;32.30;99.90
22742;DHT22;11538;48.884;8.696;2023-08-12T11:46:11;32.20;99.90
22742;DHT22;11538;48.884;8.696;2023-08-12T11:48:43;32.20;99.90
22742;DHT22;11538;48.884;8.696;2023-08-12T11:51:10;32.10;99.90
22742;DHT22;11538;48.884;8.696;2023-08-12T11:53:37;32.00;99.90
22742;DHT22;11538;48.884;8.696;2023-08-12T11:56:04;31.80;99.90
22742;DHT22;11538;48.884;8.696;2023-08-12T11:58:36;31.90;99.90
22742;DHT22;11538;48.884;8.696;2023-08-12T12:01:17;31.70;99.90
22742;DHT22;11538;48.884;8.696;2023-08-12T12:03:44;31.50;99.90
22742;DHT22;11538;48.884;8.696;2023-08-12T12:06:12;31.30;99.90
22742;DHT22;11538;48.884;8.696;2023-08-12T12:08:39;31.00;99.90
22742;DHT22;11538;48.884;8.696;2023-08-12T12:11:06;30.80;99.90
22742;DHT22;11538;48.884;8.696;2023-08-12T12:13:34;30.60;99.90
22742;DHT22;11538;48.884;8.696;2023-08-12T12:16:01;30.40;99.90
22742;DHT22;11538;48.884;8.696;2023-08-12T12:18:28;30.10;99.90
22742;DHT22;11538;48.884;8.696;2023-08-12T12:21:00;29.90;99.90
22742;DHT22;11538;48.884;8.696;2023-08-12T12:23:31;29.80;99.90
22742;DHT22;11538;48.884;8.696;2023-08-12T12:26:02;29.80;99.90
22742;DHT22;11538;48.884;8.696;2023-08-12T12:28:31;29.90;99.90
22742;DHT22;11538;48.884;8.696;2023-08-12T12:30:58;29.80;99.90
22742;DHT22;11538;48.884;8.696;2023-08-12T12:33:25;29.70;99.90
22742;DHT22;11538;48.884;8.696;2023-08-12T12:35:52;29.70;99.90
22742;DHT22;11538;48.884;8.696;2023-08-12T12:38:26;29.70;99.90
22742;DHT22;11538;48.884;8.696;2023-08-12T12:40:53;30.20;99.90
22742;DHT22;11538;48.884;8.696;2023-08-12T12:43:20;30.80;99.90
22742;DHT22;11538;48.884;8.696;2023-08-12T12:45:47;31.20;99.90
22742;DHT22;11538;48.884;8.696;2023-08-12T12:48:14;31.60;99.90
22742;DHT22;11538;48.884;8.696;2023-08-12T12:50:42;32.00;99.90
22742;DHT22;11538;48.884;8.696;2023-08-12T12:53:09;32.20;99.90
22742;DHT22;11538;48.884;8.696;2023-08-12T12:55:35;32.40;99.90
22742;DHT22;11538;48.884;8.696;2023-08-12T12:58:03;32.40;99.90
22742;DHT22;11538;48.884;8.696;2023-08-12T13:00:30;32.30;99.90
22742;DHT22;11538;48.884;8.696;2023-08-12T13:02:58;32.20;99.90
22742;DHT22;11538;48.884;8.696;2023-08-12T13:05:25;31.90;99.90
22742;DHT22;11538;48.884;8.696;2023-08-12T13:07:52;31.70;99.90
22742;DHT22;11538;48.884;8.696;2023-08-12T13:10:19;31.40;99.90
22742;DHT22;11538;48.884;8.696;2023-08-12T13:12:46;31.10;99.90
22742;DHT22;11538;48.884;8.696;2023-08-12T13:15:13;30.90;99.90
22742;DHT22;11538;48.884;8.696;2023-08-12T13:17:40;30.70;99.90
22742;DHT22;11538;48.884;8.696;2023-08-12T13:20:08;30.80;99.90
22742;DHT22;11538;48.884;8.696;2023-08-12T13:22:36;31.10;99.90
22742;DHT22;11538;48.884;8.696;2023-08-12T13:25:03;31.30;99.90
22742;DHT22;11538;48.884;8.696;2023-08-12T13:27:31;31.60;99.90
22742;DHT22;11538;48.884;8.696;2023-08-12T13:29:58;31.80;99.90
22742;DHT22;11538;48.884;8.696;2023-08-12T13:32:25;31.80;99.90
22742;DHT22;11538;48.884;8.696;2023-08-12T13:34:52;31.70;99.90
22742;DHT22;11538;48.884;8.696;2023-08-12T13:37:19;31.60;99.90
22742;DHT22;11538;48.884;8.696;2023-08-12T13:39:46;31.60;99.90
22742;DHT22;11538;48.884;8.696;2023-08-12T13:42:13;31.50;99.90
22742;DHT22;11538;48.884;8.696;2023-08-12T13:44:40;31.40;99.90
22742;DHT22;11538;48.884;8.696;2023-08-12T13:47:07;31.40;99.90
22742;DHT22;11538;48.884;8.696;2023-08-12T13:49:34;31.50;99.90
22742;DHT22;11538;48.884;8.696;2023-08-12T13:52:01;31.70;99.90
22742;DHT22;11538;48.884;8.696;2023-08-12T13:54:29;31.80;99.90
22742;DHT22;11538;48.884;8.696;2023-08-12T13:56:56;31.70;99.90
22742;DHT22;11538;48.884;8.696;2023-08-12T13:59:25;31.60;99.90
22742;DHT22;11538;48.884;8.696;2023-08-12T14:01:52;31.50;99.90
22742;DHT22;11538;48.884;8.696;2023-08-12T14:04:19;31.40;99.90
22742;DHT22;11538;48.884;8.696;2023-08-12T14:06:46;31.40;99.90
22742;DHT22;11538;48.884;8.696;2023-08-12T14:09:16;31.40;99.90
22742;DHT22;11538;48.884;8.696;2023-08-12T14:11:44;31.40;99.90
22742;DHT22;11538;48.884;8.696;2023-08-12T14:14:12;31.30;99.90
22742;DHT22;11538;48.884;8.696;2023-08-12T14:16:38;31.20;99.90
22742;DHT22;11538;48.884;8.696;2023-08-12T14:19:05;31.10;99.90
22742;DHT22;11538;48.884;8.696;2023-08-12T14:21:32;30.90;99.90
22742;DHT22;11538;48.884;8.696;2023-08-12T14:23:59;30.90;99.90
22742;DHT22;11538;48.884;8.696;2023-08-12T14:26:26;30.70;99.90
22742;DHT22;11538;48.884;8.696;2023-08-12T14:28:53;30.60;99.90
22742;DHT22;11538;48.884;8.696;2023-08-12T14:31:21;30.50;99.90
22742;DHT22;11538;48.884;8.696;2023-08-12T14:33:48;30.40;99.90
22742;DHT22;11538;48.884;8.696;2023-08-12T14:36:15;30.20;99.90
22742;DHT22;11538;48.884;8.696;2023-08-12T14:38:42;30.00;99.90
22742;DHT22;11538;48.884;8.696;2023-08-12T14:41:09;29.80;99.90
22742;DHT22;11538;48.884;8.696;2023-08-12T14:43:36;29.60;99.90
22742;DHT22;11538;48.884;8.696;2023-08-12T14:46:04;29.50;99.90
22742;DHT22;11538;48.884;8.696;2023-08-12T14:48:31;29.30;99.90
22742;DHT22;11538;48.884;8.696;2023-08-12T14:50:58;29.20;99.90
22742;DHT22;11538;48.884;8.696;2023-08-12T14:53:26;29.10;99.90
22742;DHT22;11538;48.884;8.696;2023-08-12T14:55:54;29.00;99.90
22742;DHT22;11538;48.884;8.696;2023-08-12T14:58:21;28.90;99.90
22742;DHT22;11538;48.884;8.696;2023-08-12T15:00:48;28.80;99.90
22742;DHT22;11538;48.884;8.696;2023-08-12T15:03:15;28.60;99.90
22742;DHT22;11538;48.884;8.696;2023-08-12T15:05:43;28.50;99.90
22742;DHT22;11538;48.884;8.696;2023-08-12T15:08:10;28.40;99.90
22742;DHT22;11538;48.884;8.696;2023-08-12T15:10:37;28.30;99.90
22742;DHT22;11538;48.884;8.696;2023-08-12T15:13:05;28.20;99.90
22742;DHT22;11538;48.884;8.696;2023-08-12T15:15:32;28.10;99.90
22742;DHT22;11538;48.884;8.696;2023-08-12T15:17:59;27.90;99.90
22742;DHT22;11538;48.884;8.696;2023-08-12T15:20:26;27.80;99.90
22742;DHT22;11538;48.884;8.696;2023-08-12T15:22:57;27.70;99.90
22742;DHT22;11538;48.884;8.696;2023-08-12T15:25:24;27.60;99.90
22742;DHT22;11538;48.884;8.696;2023-08-12T15:27:50;27.40;99.90
22742;DHT22;11538;48.884;8.696;2023-08-12T15:30:17;27.30;99.90
22742;DHT22;11538;48.884;8.696;2023-08-12T15:32:44;27.00;99.90
22742;DHT22;11538;48.884;8.696;2023-08-12T15:35:11;26.80;99.90
22742;DHT22;11538;48.884;8.696;2023-08-12T15:37:40;26.60;99.90